createdAt,value
2022-09-22T00:01:14.381Z,99938.31
2022-09-22T00:03:49.348Z,99937.91
2022-09-22T00:06:22.040Z,99951.72
2022-09-22T00:08:54.045Z,99936.81
2022-09-22T00:11:29.325Z,99929.13
2022-09-22T00:14:08.403Z,99933.50
2022-09-22T00:16:47.720Z,99932.16
2022-09-22T00:19:17.408Z,99932.34
2022-09-22T00:21:44.429Z,99928.31
2022-09-22T00:24:11.375Z,99924.56
2022-09-22T00:26:38.477Z,99934.47
2022-09-22T00:29:09.528Z,99931.75
2022-09-22T00:31:38.617Z,99931.88
2022-09-22T00:34:05.999Z,99934.31
2022-09-22T00:36:33.095Z,99931.13
2022-09-22T00:39:00.129Z,99926.47
2022-09-22T00:41:28.271Z,99929.63
2022-09-22T00:44:40.710Z,99921.66
2022-09-22T00:47:45.895Z,99927.28
2022-09-22T00:50:22.383Z,99924.84
2022-09-22T00:52:59.942Z,99925.78
2022-09-22T00:55:43.267Z,99922.44
2022-09-22T00:58:14.409Z,99923.91
2022-09-22T01:00:41.217Z,99918.44
2022-09-22T01:03:11.772Z,99915.91
2022-09-22T01:05:39.578Z,99915.34
2022-09-22T01:08:06.586Z,99913.34
2022-09-22T01:10:33.618Z,99905.66
2022-09-22T01:13:19.171Z,99920.06
2022-09-22T01:16:18.269Z,99907.34
2022-09-22T01:19:29.769Z,99909.53
2022-09-22T01:22:29.422Z,99910.19
2022-09-22T01:24:59.389Z,99905.13
2022-09-22T01:28:01.540Z,99902.72
2022-09-22T01:30:44.510Z,99898.06
2022-09-22T01:33:48.345Z,99899.28
2022-09-22T01:36:23.292Z,99898.59
2022-09-22T01:39:17.497Z,99899.53
2022-09-22T01:42:16.139Z,99904.75
2022-09-22T01:44:50.350Z,99898.41
2022-09-22T01:47:44.899Z,99896.75
2022-09-22T01:50:20.788Z,99892.84
2022-09-22T01:52:48.146Z,99895.84
2022-09-22T01:55:27.640Z,99889.97
2022-09-22T01:58:22.887Z,99901.72
2022-09-22T02:01:01.005Z,99891.28
2022-09-22T02:03:38.459Z,99883.16
2022-09-22T02:06:23.374Z,99891.91
2022-09-22T02:09:22.075Z,99894.72
2022-09-22T02:11:48.973Z,99888.19
2022-09-22T02:14:16.243Z,99892.09
2022-09-22T02:16:43.011Z,99882.59
2022-09-22T02:19:21.563Z,99881.50
2022-09-22T02:21:48.784Z,99880.00
2022-09-22T02:24:38.050Z,99880.28
2022-09-22T02:27:08.087Z,99881.13
2022-09-22T02:29:38.071Z,99882.34
2022-09-22T02:32:08.014Z,99878.06
2022-09-22T02:34:34.700Z,99874.03
2022-09-22T02:37:21.996Z,99883.34
2022-09-22T02:39:56.984Z,99875.72
2022-09-22T02:42:30.857Z,99875.19
2022-09-22T02:45:15.845Z,99877.50
2022-09-22T02:47:48.126Z,99882.25
2022-09-22T02:50:17.817Z,99877.59
2022-09-22T02:52:44.582Z,99884.19
2022-09-22T02:55:12.642Z,99879.00
2022-09-22T02:57:39.334Z,99872.28
2022-09-22T03:00:06.949Z,99880.66
2022-09-22T03:02:33.724Z,99870.69
2022-09-22T03:05:00.477Z,99871.44
2022-09-22T03:07:27.394Z,99872.38
2022-09-22T03:09:54.160Z,99868.66
2022-09-22T03:12:20.891Z,99882.25
2022-09-22T03:14:47.764Z,99862.78
2022-09-22T03:17:14.732Z,99869.50
2022-09-22T03:19:41.386Z,99857.47
2022-09-22T03:22:08.339Z,99873.22
2022-09-22T03:24:35.134Z,99862.31
2022-09-22T03:27:01.843Z,99862.66
2022-09-22T03:29:28.628Z,99864.00
2022-09-22T03:31:55.243Z,99864.00
2022-09-22T03:34:22.060Z,99861.22
2022-09-22T03:36:48.817Z,99853.19
2022-09-22T03:39:15.580Z,99869.59
2022-09-22T03:41:42.408Z,99863.81
2022-09-22T03:44:09.399Z,99861.47
2022-09-22T03:46:36.267Z,99861.47
2022-09-22T03:49:04.083Z,99866.69
2022-09-22T03:51:31.219Z,99869.47
2022-09-22T03:53:58.037Z,99866.59
2022-09-22T03:56:24.876Z,99867.44
2022-09-22T03:58:51.552Z,99864.91
2022-09-22T04:01:18.534Z,99864.91
2022-09-22T04:03:45.445Z,99864.53
2022-09-22T04:06:12.211Z,99863.34
2022-09-22T04:08:39.117Z,99860.72
2022-09-22T04:11:06.880Z,99858.88
2022-09-22T04:13:36.756Z,99847.97
2022-09-22T04:16:05.527Z,99854.94
2022-09-22T04:18:32.750Z,99855.25
2022-09-22T04:20:59.986Z,99857.19
2022-09-22T04:23:27.392Z,99854.78
2022-09-22T04:25:54.376Z,99849.63
2022-09-22T04:28:21.571Z,99849.09
2022-09-22T04:30:48.360Z,99846.84
2022-09-22T04:33:15.268Z,99844.16
2022-09-22T04:35:42.008Z,99852.81
2022-09-22T04:38:10.405Z,99844.06
2022-09-22T04:40:37.875Z,99848.81
2022-09-22T04:43:04.699Z,99853.28
2022-09-22T04:45:33.972Z,99846.28
2022-09-22T04:48:02.982Z,99852.03
2022-09-22T04:50:29.800Z,99843.13
2022-09-22T04:52:57.316Z,99853.75
2022-09-22T04:55:25.187Z,99850.66
2022-09-22T04:57:53.912Z,99848.91
2022-09-22T05:00:22.090Z,99852.16
2022-09-22T05:02:49.037Z,99850.75
2022-09-22T05:05:16.130Z,99851.69
2022-09-22T05:07:45.763Z,99853.03
2022-09-22T05:10:13.699Z,99847.13
2022-09-22T05:12:41.486Z,99845.72
2022-09-22T05:15:10.054Z,99846.47
2022-09-22T05:17:36.901Z,99852.09
2022-09-22T05:20:07.463Z,99845.47
2022-09-22T05:22:39.125Z,99848.16
2022-09-22T05:25:08.740Z,99854.22
2022-09-22T05:27:35.707Z,99846.19
2022-09-22T05:30:02.704Z,99857.38
2022-09-22T05:32:29.468Z,99857.28
2022-09-22T05:34:56.100Z,99863.97
2022-09-22T05:37:22.872Z,99859.44
2022-09-22T05:39:49.652Z,99861.75
2022-09-22T05:42:16.315Z,99855.88
2022-09-22T05:44:42.944Z,99866.13
2022-09-22T05:47:09.560Z,99864.53
2022-09-22T05:49:36.373Z,99860.81
2022-09-22T05:52:03.478Z,99862.56
2022-09-22T05:54:30.116Z,99863.59
2022-09-22T05:56:56.967Z,99866.69
2022-09-22T05:59:23.634Z,99860.66
2022-09-22T06:01:50.412Z,99863.34
2022-09-22T06:04:17.350Z,99869.03
2022-09-22T06:06:44.030Z,99869.19
2022-09-22T06:09:10.759Z,99876.56
2022-09-22T06:11:37.516Z,99874.63
2022-09-22T06:14:04.259Z,99869.19
2022-09-22T06:16:32.003Z,99876.56
2022-09-22T06:18:59.078Z,99872.91
2022-09-22T06:21:26.161Z,99871.91
2022-09-22T06:23:52.994Z,99867.72
2022-09-22T06:26:19.785Z,99868.25
2022-09-22T06:28:47.350Z,99871.25
2022-09-22T06:31:15.432Z,99865.00
2022-09-22T06:33:48.413Z,99872.19
2022-09-22T06:36:31.416Z,99873.09
2022-09-22T06:38:59.041Z,99869.03
2022-09-22T06:41:26.791Z,99869.13
2022-09-22T06:43:56.220Z,99872.47
2022-09-22T06:46:24.865Z,99868.84
2022-09-22T06:48:54.316Z,99870.50
2022-09-22T06:51:21.151Z,99875.34
2022-09-22T06:53:51.820Z,99870.41
2022-09-22T06:56:20.511Z,99868.81
2022-09-22T06:59:08.958Z,99864.38
2022-09-22T07:01:34.237Z,99867.41
2022-09-22T07:04:01.424Z,99869.03
2022-09-22T07:06:28.787Z,99863.59
2022-09-22T07:08:55.437Z,99861.09
2022-09-22T07:11:23.852Z,99869.97
2022-09-22T07:13:53.621Z,99861.16
2022-09-22T07:16:22.598Z,99860.06
2022-09-22T07:18:51.550Z,99873.19
2022-09-22T07:21:24.275Z,99881.19
2022-09-22T07:23:53.414Z,99872.16
2022-09-22T07:26:24.038Z,99876.34
2022-09-22T07:28:53.507Z,99877.38
2022-09-22T07:31:23.960Z,99869.19
2022-09-22T07:33:54.952Z,99877.94
2022-09-22T07:36:23.398Z,99877.19
2022-09-22T07:38:51.882Z,99883.13
2022-09-22T07:41:24.444Z,99873.41
2022-09-22T07:43:53.508Z,99873.72
2022-09-22T07:46:20.645Z,99880.06
2022-09-22T07:48:48.095Z,99877.13
2022-09-22T07:51:19.443Z,99875.06
2022-09-22T07:54:07.320Z,99864.84
2022-09-22T07:56:40.392Z,99867.50
2022-09-22T07:59:10.939Z,99862.75
2022-09-22T08:01:47.790Z,99862.94
2022-09-22T08:04:16.934Z,99864.88
2022-09-22T08:06:44.457Z,99873.25
2022-09-22T08:09:12.028Z,99870.28
2022-09-22T08:11:39.163Z,99868.09
2022-09-22T08:14:08.710Z,99869.56
2022-09-22T08:16:39.171Z,99870.59
2022-09-22T08:19:12.721Z,99868.09
2022-09-22T08:21:48.370Z,99873.47
2022-09-22T08:24:21.600Z,99862.72
2022-09-22T08:26:50.697Z,99871.09
2022-09-22T08:29:17.492Z,99868.88
2022-09-22T08:31:47.782Z,99860.97
2022-09-22T08:34:16.699Z,99860.63
2022-09-22T08:36:47.502Z,99870.03
2022-09-22T08:39:18.548Z,99866.50
2022-09-22T08:42:19.388Z,99857.03
2022-09-22T08:44:54.474Z,99858.41
2022-09-22T08:47:45.434Z,99859.94
2022-09-22T08:50:51.763Z,99860.28
2022-09-22T08:53:23.100Z,99864.81
2022-09-22T08:56:03.243Z,99859.22
2022-09-22T08:58:45.435Z,99859.28
2022-09-22T09:01:20.670Z,99851.34
2022-09-22T09:04:22.328Z,99846.19
2022-09-22T09:07:08.243Z,99849.06
2022-09-22T09:10:05.318Z,99841.91
2022-09-22T09:12:58.335Z,99850.31
2022-09-22T09:15:37.674Z,99842.94
2022-09-22T09:18:13.699Z,99835.63
2022-09-22T09:20:45.154Z,99843.97
2022-09-22T09:26:18.884Z,99844.25
2022-09-22T09:28:50.537Z,99846.59
2022-09-22T09:31:21.454Z,99838.06
2022-09-22T09:33:59.518Z,99836.63
2022-09-22T09:36:31.395Z,99831.91
2022-09-22T09:38:59.051Z,99840.72
2022-09-22T09:41:34.395Z,99830.50
2022-09-22T09:44:02.080Z,99828.09
2022-09-22T09:46:50.936Z,99838.78
2022-09-22T09:49:20.058Z,99832.44
2022-09-22T09:51:50.728Z,99823.00
2022-09-22T09:54:18.995Z,99823.41
2022-09-22T09:57:21.398Z,99824.19
2022-09-22T10:00:32.661Z,99827.47
2022-09-22T10:03:25.540Z,99822.75
2022-09-22T10:06:04.733Z,99810.13
2022-09-22T10:08:36.772Z,99817.25
2022-09-22T10:11:04.627Z,99813.88
2022-09-22T10:13:34.039Z,99817.94
2022-09-22T10:16:24.615Z,99810.00
2022-09-22T10:19:17.420Z,99810.81
2022-09-22T10:21:44.059Z,99806.81
2022-09-22T10:24:29.930Z,99818.19
2022-09-22T10:26:57.480Z,99800.94
2022-09-22T10:29:25.292Z,99801.16
2022-09-22T10:32:16.574Z,99804.22
2022-09-22T10:34:51.338Z,99795.38
2022-09-22T10:37:21.209Z,99789.16
2022-09-22T10:39:50.700Z,99788.03
2022-09-22T10:42:35.818Z,99785.22
2022-09-22T10:45:09.114Z,99790.41
2022-09-22T10:47:51.696Z,99786.72
2022-09-22T10:50:55.807Z,99787.16
2022-09-22T10:53:47.110Z,99776.69
2022-09-22T10:56:26.030Z,99778.72
2022-09-22T10:59:05.960Z,99773.63
2022-09-22T11:01:48.979Z,99771.09
2022-09-22T11:04:43.107Z,99771.16
2022-09-22T11:07:59.337Z,99764.66
2022-09-22T11:11:17.074Z,99762.56
2022-09-22T11:13:58.567Z,99755.06
2022-09-22T11:16:37.805Z,99748.88
2022-09-22T11:19:33.007Z,99750.19
2022-09-22T11:22:34.707Z,99742.75
2022-09-22T11:25:33.710Z,99747.06
2022-09-22T11:28:38.991Z,99735.13
2022-09-22T11:31:05.707Z,99736.44
2022-09-22T11:34:06.437Z,99734.47
2022-09-22T11:36:51.452Z,99731.13
2022-09-22T11:39:21.227Z,99733.31
2022-09-22T11:42:02.214Z,99730.78
2022-09-22T11:44:33.635Z,99730.41
2022-09-22T11:47:29.855Z,99713.97
2022-09-22T11:50:26.920Z,99716.97
2022-09-22T11:53:05.028Z,99711.63
2022-09-22T11:56:06.698Z,99709.16
2022-09-22T11:58:34.386Z,99700.53
2022-09-22T12:01:17.850Z,99706.66
2022-09-22T12:03:52.623Z,99702.03
2022-09-22T12:06:26.691Z,99700.03
2022-09-22T12:09:06.159Z,99700.22
2022-09-22T12:11:36.007Z,99695.06
2022-09-22T12:14:03.832Z,99686.84
2022-09-22T12:16:43.822Z,99691.34
2022-09-22T12:20:08.459Z,99682.94
2022-09-22T12:22:58.390Z,99683.66
2022-09-22T12:25:48.620Z,99679.50
2022-09-22T12:28:18.674Z,99682.03
2022-09-22T12:30:56.926Z,99675.72
2022-09-22T12:33:23.843Z,99679.72
2022-09-22T12:35:55.218Z,99673.56
2022-09-22T12:38:22.923Z,99667.41
2022-09-22T12:40:51.984Z,99669.25
2022-09-22T12:43:21.905Z,99666.25
2022-09-22T12:45:49.569Z,99660.78
2022-09-22T12:48:35.123Z,99655.22
2022-09-22T12:51:29.423Z,99654.81
2022-09-22T12:54:33.692Z,99658.22
2022-09-22T12:57:21.629Z,99637.44
2022-09-22T13:00:11.115Z,99642.59
2022-09-22T13:02:43.312Z,99644.34
2022-09-22T13:05:25.035Z,99639.91
2022-09-22T13:08:01.854Z,99638.53
2022-09-22T13:10:28.858Z,99637.84
2022-09-22T13:13:01.833Z,99632.25
2022-09-22T13:15:31.405Z,99636.00
2022-09-22T13:17:59.069Z,99633.53
2022-09-22T13:20:32.012Z,99629.50
2022-09-22T13:23:06.057Z,99634.38
2022-09-22T13:25:33.004Z,99637.97
2022-09-22T13:28:11.374Z,99641.28
2022-09-22T13:30:40.466Z,99636.59
2022-09-22T13:33:18.614Z,99635.88
2022-09-22T13:35:45.765Z,99637.97
2022-09-22T13:38:13.837Z,99619.41
2022-09-22T13:40:46.232Z,99629.00
2022-09-22T13:43:25.805Z,99615.81
2022-09-22T13:45:52.843Z,99616.25
2022-09-22T13:48:20.463Z,99619.13
2022-09-22T13:50:56.975Z,99605.03
2022-09-22T13:53:23.847Z,99603.50
2022-09-22T13:55:52.094Z,99611.06
2022-09-22T13:58:24.441Z,99611.97
2022-09-22T14:01:13.046Z,99603.16
2022-09-22T14:03:40.422Z,99603.78
2022-09-22T14:06:15.803Z,99602.47
2022-09-22T14:08:44.232Z,99598.63
2022-09-22T14:11:18.631Z,99594.66
2022-09-22T14:13:55.090Z,99594.97
2022-09-22T14:16:39.291Z,99592.84
2022-09-22T14:19:14.742Z,99596.13
2022-09-22T14:21:58.570Z,99590.19
2022-09-22T14:24:26.573Z,99586.69
2022-09-22T14:26:57.988Z,99578.09
2022-09-22T14:29:30.427Z,99584.06
2022-09-22T14:32:11.870Z,99585.28
2022-09-22T14:34:39.609Z,99576.28
2022-09-22T14:37:24.976Z,99581.88
2022-09-22T14:39:53.716Z,99572.97
2022-09-22T14:42:28.579Z,99567.50
2022-09-22T14:45:21.153Z,99559.25
2022-09-22T14:48:15.673Z,99564.22
2022-09-22T14:50:45.658Z,99563.53
2022-09-22T14:53:29.240Z,99553.75
2022-09-22T14:56:07.619Z,99559.31
2022-09-22T14:58:40.430Z,99561.03
2022-09-22T15:01:52.581Z,99557.22
2022-09-22T15:04:28.351Z,99553.88
2022-09-22T15:06:56.944Z,99550.63
2022-09-22T15:09:37.862Z,99544.56
2022-09-22T15:12:05.149Z,99543.41
2022-09-22T15:14:50.449Z,99536.00
2022-09-22T15:17:55.886Z,99530.69
2022-09-22T15:20:26.676Z,99528.44
2022-09-22T15:22:56.228Z,99527.75
2022-09-22T15:25:23.519Z,99525.78
2022-09-22T15:27:56.169Z,99530.06
2022-09-22T15:30:22.961Z,99530.22
2022-09-22T15:32:49.843Z,99525.56
2022-09-22T15:35:17.956Z,99525.56
2022-09-22T15:37:50.325Z,99515.16
2022-09-22T15:40:21.430Z,99511.97
2022-09-22T15:43:09.090Z,99523.28
2022-09-22T15:45:37.464Z,99530.91
2022-09-22T15:48:04.375Z,99526.91
2022-09-22T15:50:31.135Z,99528.53
2022-09-22T15:52:57.885Z,99523.22
2022-09-22T15:55:24.679Z,99512.78
2022-09-22T15:57:55.021Z,99521.41
2022-09-22T16:00:27.432Z,99518.56
2022-09-22T16:02:54.820Z,99516.91
2022-09-22T16:05:21.679Z,99514.66
2022-09-22T16:07:52.652Z,99515.72
2022-09-22T16:10:23.809Z,99516.72
2022-09-22T16:12:50.833Z,99513.41
2022-09-22T16:15:17.815Z,99519.09
2022-09-22T16:17:45.925Z,99513.13
2022-09-22T16:20:17.368Z,99516.28
2022-09-22T16:22:45.606Z,99512.94
2022-09-22T16:25:12.932Z,99513.69
2022-09-22T16:27:39.996Z,99513.84
2022-09-22T16:30:07.739Z,99509.22
2022-09-22T16:32:36.411Z,99506.56
2022-09-22T16:35:04.006Z,99513.03
2022-09-22T16:37:30.825Z,99515.38
2022-09-22T16:39:57.500Z,99501.28
2022-09-22T16:42:24.186Z,99513.22
2022-09-22T16:44:51.069Z,99508.09
2022-09-22T16:47:22.967Z,99512.75
2022-09-22T16:49:51.788Z,99502.63
2022-09-22T16:52:19.467Z,99494.34
2022-09-22T16:54:46.427Z,99503.63
2022-09-22T16:57:13.501Z,99498.69
2022-09-22T16:59:40.272Z,99496.88
2022-09-22T17:02:07.320Z,99498.34
2022-09-22T17:04:34.065Z,99493.38
2022-09-22T17:07:00.797Z,99493.00
2022-09-22T17:09:27.809Z,99482.41
2022-09-22T17:11:54.624Z,99488.03
2022-09-22T17:14:22.304Z,99484.53
2022-09-22T17:16:52.394Z,99485.00
2022-09-22T17:19:24.349Z,99483.66
2022-09-22T17:21:53.014Z,99478.13
2022-09-22T17:24:19.987Z,99484.06
2022-09-22T17:26:49.150Z,99482.88
2022-09-22T17:29:25.366Z,99483.38
2022-09-22T17:31:57.769Z,99481.09
2022-09-22T17:34:26.051Z,99485.34
2022-09-22T17:36:55.656Z,99476.13
2022-09-22T17:39:24.209Z,99483.50
2022-09-22T17:41:51.195Z,99478.13
2022-09-22T17:44:21.115Z,99480.53
2022-09-22T17:47:07.958Z,99479.09
2022-09-22T17:49:53.245Z,99480.47
2022-09-22T17:52:52.258Z,99489.97
2022-09-22T17:55:25.674Z,99495.34
2022-09-22T17:57:53.019Z,99496.03
2022-09-22T18:00:21.397Z,99503.09
2022-09-22T18:02:49.689Z,99494.09
2022-09-22T18:05:19.960Z,99502.28
2022-09-22T18:07:49.483Z,99494.97
2022-09-22T18:10:19.348Z,99501.16
2022-09-22T18:12:45.977Z,99508.75
2022-09-22T18:15:13.566Z,99495.38
2022-09-22T18:17:42.244Z,99504.84
2022-09-22T18:20:14.481Z,99504.53
2022-09-22T18:22:42.042Z,99502.00
2022-09-22T18:25:11.078Z,99504.69
2022-09-22T18:27:38.482Z,99504.69
2022-09-22T18:30:05.788Z,99506.34
2022-09-22T18:32:33.487Z,99510.06
2022-09-22T18:35:00.211Z,99502.50
2022-09-22T18:37:27.177Z,99507.13
2022-09-22T18:39:54.394Z,99508.91
2022-09-22T18:42:24.431Z,99509.63
2022-09-22T18:44:52.178Z,99516.44
2022-09-22T18:47:21.315Z,99513.66
2022-09-22T18:49:51.972Z,99519.34
2022-09-22T18:52:29.068Z,99520.69
2022-09-22T18:54:56.231Z,99515.56
2022-09-22T18:57:25.888Z,99521.69
2022-09-22T18:59:54.194Z,99513.66
2022-09-22T19:02:23.065Z,99517.81
2022-09-22T19:04:51.851Z,99523.94
2022-09-22T19:07:41.591Z,99524.75
2022-09-22T19:10:13.834Z,99514.78
2022-09-22T19:12:40.846Z,99521.56
2022-09-22T19:15:13.030Z,99529.31
2022-09-22T19:17:42.866Z,99526.97
2022-09-22T19:20:12.515Z,99535.53
2022-09-22T19:22:39.925Z,99535.00
2022-09-22T19:25:07.238Z,99538.59
2022-09-22T19:27:35.013Z,99529.59
2022-09-22T19:30:02.298Z,99526.69
2022-09-22T19:32:28.913Z,99534.72
2022-09-22T19:34:56.629Z,99523.63
2022-09-22T19:37:25.055Z,99534.44
2022-09-22T19:39:51.746Z,99523.09
2022-09-22T19:42:19.171Z,99524.72
2022-09-22T19:44:45.798Z,99515.03
2022-09-22T19:47:12.603Z,99516.84
2022-09-22T19:49:41.005Z,99519.41
2022-09-22T19:52:09.576Z,99517.41
2022-09-22T19:54:36.351Z,99511.09
2022-09-22T19:57:03.148Z,99517.88
2022-09-22T19:59:29.897Z,99521.38
2022-09-22T20:01:56.723Z,99514.66
2022-09-22T20:04:23.756Z,99513.69
2022-09-22T20:06:50.639Z,99516.84
2022-09-22T20:09:17.603Z,99520.09
2022-09-22T20:11:47.007Z,99517.09
2022-09-22T20:14:20.628Z,99521.28
2022-09-22T20:17:08.289Z,99515.88
2022-09-22T20:19:38.587Z,99512.97
2022-09-22T20:22:27.772Z,99516.78
2022-09-22T20:24:57.800Z,99511.00
2022-09-22T20:27:26.615Z,99503.81
2022-09-22T20:29:57.104Z,99504.59
2022-09-22T20:32:25.257Z,99512.91
2022-09-22T20:34:54.274Z,99509.41
2022-09-22T20:37:23.140Z,99514.06
2022-09-22T20:39:50.405Z,99514.56
2022-09-22T20:42:17.709Z,99514.78
2022-09-22T20:44:44.491Z,99511.41
2022-09-22T20:47:15.033Z,99513.81
2022-09-22T20:49:42.338Z,99515.88
2022-09-22T20:52:14.682Z,99518.81
2022-09-22T20:54:42.270Z,99515.19
2022-09-22T20:57:09.522Z,99517.41
2022-09-22T20:59:36.496Z,99520.91
2022-09-22T21:02:03.252Z,99510.66
2022-09-22T21:04:30.688Z,99512.50
2022-09-22T21:06:58.303Z,99511.56
2022-09-22T21:09:43.798Z,99509.53
2022-09-22T21:12:10.858Z,99512.44
2022-09-22T21:14:37.554Z,99517.47
2022-09-22T21:17:06.709Z,99503.31
2022-09-22T21:19:34.900Z,99519.88
2022-09-22T21:22:01.593Z,99519.81
2022-09-22T21:24:28.849Z,99515.31
2022-09-22T21:27:01.928Z,99510.19
2022-09-22T21:29:29.935Z,99512.28
2022-09-22T21:31:57.993Z,99515.66
2022-09-22T21:34:25.037Z,99508.25
2022-09-22T21:36:51.703Z,99510.63
2022-09-22T21:39:18.505Z,99512.06
2022-09-22T21:41:45.182Z,99510.25
2022-09-22T21:44:11.842Z,99509.78
2022-09-22T21:46:41.082Z,99503.31
2022-09-22T21:49:08.825Z,99496.88
2022-09-22T21:51:41.530Z,99504.38
2022-09-22T21:54:13.028Z,99500.78
2022-09-22T21:56:40.088Z,99497.88
2022-09-22T21:59:06.894Z,99499.47
2022-09-22T22:01:36.097Z,99506.16
2022-09-22T22:04:03.588Z,99498.22
2022-09-22T22:06:32.754Z,99502.88
2022-09-22T22:09:04.327Z,99505.03
2022-09-22T22:11:39.634Z,99501.66
2022-09-22T22:14:08.682Z,99509.56
2022-09-22T22:16:40.418Z,99504.31
2022-09-22T22:19:09.119Z,99492.16
2022-09-22T22:21:36.619Z,99496.72
2022-09-22T22:24:24.783Z,99493.34
2022-09-22T22:26:57.351Z,99496.47
2022-09-22T22:29:27.519Z,99488.38
2022-09-22T22:31:54.543Z,99489.00
2022-09-22T22:34:25.752Z,99486.50
2022-09-22T22:36:53.091Z,99485.16
2022-09-22T22:39:20.054Z,99491.72
2022-09-22T22:41:48.876Z,99493.63
2022-09-22T22:44:18.405Z,99491.72
2022-09-22T22:46:46.241Z,99484.94
2022-09-22T22:49:13.250Z,99492.66
2022-09-22T22:51:43.455Z,99488.88
2022-09-22T22:54:11.980Z,99490.41
2022-09-22T22:56:42.048Z,99490.66
2022-09-22T22:59:09.869Z,99491.47
2022-09-22T23:01:36.950Z,99485.06
2022-09-22T23:04:06.290Z,99476.72
2022-09-22T23:06:42.261Z,99488.53
2022-09-22T23:09:12.185Z,99485.44
2022-09-22T23:11:40.329Z,99485.06
2022-09-22T23:14:09.543Z,99484.00
2022-09-22T23:16:41.906Z,99474.22
2022-09-22T23:19:11.964Z,99479.44
2022-09-22T23:21:38.748Z,99476.34
2022-09-22T23:24:06.142Z,99474.69
2022-09-22T23:26:33.257Z,99475.63
2022-09-22T23:29:00.199Z,99472.88
2022-09-22T23:31:28.013Z,99473.81
2022-09-22T23:33:54.804Z,99476.78
2022-09-22T23:36:24.428Z,99472.63
2022-09-22T23:38:55.513Z,99469.06
2022-09-22T23:41:22.476Z,99466.19
2022-09-22T23:43:51.291Z,99464.78
2022-09-22T23:46:18.335Z,99463.34
2022-09-22T23:48:45.083Z,99462.06
2022-09-22T23:51:11.732Z,99462.34
2022-09-22T23:53:38.544Z,99460.34
2022-09-22T23:56:06.606Z,99460.88
2022-09-22T23:58:34.195Z,99458.16
